createdAt,value
2017-10-30T00:02:23.505Z,101399.17
2017-10-30T00:04:50.367Z,101395.51
2017-10-30T00:07:17.249Z,101401.52
2017-10-30T00:09:44.096Z,101403.45
2017-10-30T00:12:10.958Z,101403.44
2017-10-30T00:14:37.820Z,101410.34
2017-10-30T00:17:04.686Z,101408.27
2017-10-30T00:19:31.559Z,101412.44
2017-10-30T00:21:58.427Z,101409.14
2017-10-30T00:24:25.287Z,101411.11
2017-10-30T00:26:52.133Z,101409.73
2017-10-30T00:29:18.983Z,101416.31
2017-10-30T00:31:45.859Z,101423.16
2017-10-30T00:34:12.705Z,101427.28
2017-10-30T00:36:39.554Z,101427.12
2017-10-30T00:39:06.463Z,101426.84
2017-10-30T00:41:33.321Z,101421.58
2017-10-30T00:44:00.183Z,101425.92
2017-10-30T00:46:27.016Z,101428.37
2017-10-30T00:48:53.872Z,101429.80
2017-10-30T00:51:20.777Z,101429.38
2017-10-30T00:53:47.612Z,101431.81
2017-10-30T00:56:14.474Z,101429.70
2017-10-30T00:58:41.308Z,101430.08
2017-10-30T01:01:08.182Z,101433.72
2017-10-30T01:03:35.024Z,101434.73
2017-10-30T01:06:01.889Z,101433.20
2017-10-30T01:08:28.773Z,101428.14
2017-10-30T01:10:55.623Z,101425.74
2017-10-30T01:13:22.451Z,101431.06
2017-10-30T01:15:50.030Z,101431.22
2017-10-30T01:18:16.927Z,101436.83
2017-10-30T01:20:43.766Z,101433.25
2017-10-30T01:23:11.346Z,101440.23
2017-10-30T01:25:38.952Z,101431.75
2017-10-30T01:28:05.807Z,101431.36
2017-10-30T01:30:32.661Z,101432.16
2017-10-30T01:32:59.504Z,101429.50
2017-10-30T01:35:27.088Z,101436.69
2017-10-30T01:37:54.712Z,101432.31
2017-10-30T01:40:21.599Z,101437.75
2017-10-30T01:42:48.491Z,101441.41
2017-10-30T01:45:16.069Z,101440.78
2017-10-30T01:47:42.929Z,101440.44
2017-10-30T01:50:09.809Z,101442.77
2017-10-30T01:52:36.690Z,101438.83
2017-10-30T01:55:03.585Z,101446.03
2017-10-30T01:57:31.273Z,101444.65
2017-10-30T01:59:58.192Z,101445.20
2017-10-30T02:02:25.080Z,101448.50
2017-10-30T02:04:51.927Z,101451.63
2017-10-30T02:07:18.765Z,101444.98
2017-10-30T02:09:45.639Z,101435.77
2017-10-30T02:12:12.505Z,101439.89
2017-10-30T02:14:39.413Z,101436.59
2017-10-30T02:17:07.041Z,101438.13
2017-10-30T02:19:33.935Z,101444.38
2017-10-30T02:22:00.812Z,101443.55
2017-10-30T02:24:28.441Z,101443.78
2017-10-30T02:26:55.356Z,101449.79
2017-10-30T02:29:22.998Z,101452.77
2017-10-30T02:31:49.921Z,101463.34
2017-10-30T02:34:16.871Z,101472.25
2017-10-30T02:36:44.581Z,101460.02
2017-10-30T02:39:11.489Z,101469.05
2017-10-30T02:41:38.445Z,101462.77
2017-10-30T02:44:05.389Z,101454.59
2017-10-30T02:46:32.288Z,101463.55
2017-10-30T02:48:59.205Z,101458.62
2017-10-30T02:51:26.131Z,101458.80
2017-10-30T02:53:53.047Z,101462.60
2017-10-30T02:56:19.942Z,101462.81
2017-10-30T02:58:46.886Z,101469.14
2017-10-30T03:01:13.820Z,101479.45
2017-10-30T03:03:41.453Z,101479.30
2017-10-30T03:06:08.381Z,101481.20
2017-10-30T03:08:35.298Z,101475.52
2017-10-30T03:11:02.264Z,101481.56
2017-10-30T03:13:29.172Z,101479.98
2017-10-30T03:15:56.073Z,101495.56
2017-10-30T03:18:23.734Z,101502.59
2017-10-30T03:20:50.703Z,101501.33
2017-10-30T03:23:17.706Z,101500.30
2017-10-30T03:25:44.631Z,101505.41
2017-10-30T03:28:11.581Z,101506.50
2017-10-30T03:30:38.517Z,101507.56
2017-10-30T03:33:05.420Z,101514.03
2017-10-30T03:35:33.124Z,101512.41
2017-10-30T03:38:00.043Z,101521.16
2017-10-30T03:40:27.080Z,101525.28
2017-10-30T03:42:53.979Z,101528.69
2017-10-30T03:45:20.847Z,101526.77
2017-10-30T03:47:47.764Z,101529.00
2017-10-30T03:50:14.637Z,101532.89
2017-10-30T03:52:41.533Z,101530.09
2017-10-30T03:55:08.433Z,101535.08
2017-10-30T03:57:35.297Z,101530.71
2017-10-30T04:00:02.149Z,101539.06
2017-10-30T04:02:29.092Z,101542.70
2017-10-30T04:04:55.947Z,101543.42
2017-10-30T04:07:22.789Z,101548.22
2017-10-30T04:09:49.649Z,101547.20
2017-10-30T04:12:16.515Z,101555.73
2017-10-30T04:14:43.366Z,101553.42
2017-10-30T04:17:10.205Z,101556.63
2017-10-30T04:19:37.042Z,101568.17
2017-10-30T04:22:03.893Z,101565.98
2017-10-30T04:24:31.474Z,101576.51
2017-10-30T04:26:59.068Z,101576.58
2017-10-30T04:29:25.959Z,101572.47
2017-10-30T04:31:52.818Z,101576.23
2017-10-30T04:34:19.687Z,101577.11
2017-10-30T04:36:46.560Z,101581.66
2017-10-30T04:39:13.430Z,101585.64
2017-10-30T04:41:40.303Z,101587.26
2017-10-30T04:44:07.888Z,101586.73
2017-10-30T04:46:34.723Z,101587.88
2017-10-30T04:49:01.591Z,101590.03
2017-10-30T04:51:28.441Z,101587.97
2017-10-30T04:53:55.281Z,101586.95
2017-10-30T04:56:22.140Z,101580.63
2017-10-30T04:58:49.001Z,101590.31
2017-10-30T05:01:16.598Z,101595.66
2017-10-30T05:03:43.462Z,101587.20
2017-10-30T05:06:10.307Z,101600.45
2017-10-30T05:08:37.187Z,101599.73
2017-10-30T05:11:04.033Z,101597.47
2017-10-30T05:13:30.849Z,101590.91
2017-10-30T05:15:58.510Z,101596.20
2017-10-30T05:18:25.308Z,101601.65
2017-10-30T05:20:52.128Z,101610.11
2017-10-30T05:23:18.978Z,101609.24
2017-10-30T05:25:45.806Z,101619.67
2017-10-30T05:28:12.670Z,101616.31
2017-10-30T05:30:39.522Z,101618.50
2017-10-30T05:33:06.368Z,101619.70
2017-10-30T05:35:33.255Z,101620.54
2017-10-30T05:38:00.104Z,101616.09
2017-10-30T05:40:26.977Z,101623.55
2017-10-30T05:42:53.882Z,101628.73
2017-10-30T05:45:20.698Z,101629.00
2017-10-30T05:47:47.567Z,101634.70
2017-10-30T05:50:14.414Z,101632.50
2017-10-30T05:52:41.238Z,101640.00
2017-10-30T05:55:08.828Z,101633.39
2017-10-30T05:57:36.384Z,101635.58
2017-10-30T06:00:03.248Z,101635.58
2017-10-30T06:02:30.067Z,101635.06
2017-10-30T06:04:56.882Z,101638.22
2017-10-30T06:07:23.697Z,101638.39
2017-10-30T06:09:50.520Z,101639.78
2017-10-30T06:12:17.341Z,101641.42
2017-10-30T06:14:44.204Z,101645.98
2017-10-30T06:17:11.059Z,101650.36
2017-10-30T06:19:37.892Z,101653.92
2017-10-30T06:22:04.709Z,101655.69
2017-10-30T06:24:32.306Z,101657.49
2017-10-30T06:26:59.140Z,101664.42
2017-10-30T06:29:26.721Z,101665.89
2017-10-30T06:31:54.283Z,101663.14
2017-10-30T06:34:21.100Z,101665.89
2017-10-30T06:36:47.916Z,101670.52
2017-10-30T06:39:15.512Z,101668.67
2017-10-30T06:41:42.327Z,101671.58
2017-10-30T06:44:09.153Z,101678.94
2017-10-30T06:46:36.016Z,101681.05
2017-10-30T06:49:02.886Z,101687.45
2017-10-30T06:51:29.732Z,101685.83
2017-10-30T06:53:56.580Z,101693.26
2017-10-30T06:56:23.439Z,101693.11
2017-10-30T06:58:50.254Z,101690.60
2017-10-30T07:01:17.078Z,101691.66
2017-10-30T07:03:43.952Z,101703.53
2017-10-30T07:06:10.776Z,101703.49
2017-10-30T07:08:38.355Z,101715.31
2017-10-30T07:11:05.181Z,101711.70
2017-10-30T07:13:32.027Z,101714.52
2017-10-30T07:15:58.951Z,101724.27
2017-10-30T07:18:25.836Z,101718.91
2017-10-30T07:20:52.705Z,101722.72
2017-10-30T07:23:19.537Z,101730.59
2017-10-30T07:25:46.396Z,101722.84
2017-10-30T07:28:13.363Z,101736.80
2017-10-30T07:30:40.246Z,101733.66
2017-10-30T07:33:07.058Z,101733.95
2017-10-30T07:35:34.606Z,101738.36
2017-10-30T07:38:01.447Z,101750.11
2017-10-30T07:40:28.314Z,101753.02
2017-10-30T07:42:55.116Z,101754.05
2017-10-30T07:45:21.939Z,101754.16
2017-10-30T07:47:48.770Z,101755.56
2017-10-30T07:50:15.599Z,101761.18
2017-10-30T07:52:43.262Z,101762.81
2017-10-30T07:55:10.304Z,101767.23
2017-10-30T07:57:37.191Z,101771.73
2017-10-30T08:00:04.018Z,101781.17
2017-10-30T08:02:30.915Z,101780.05
2017-10-30T08:04:57.856Z,101780.19
2017-10-30T08:07:24.718Z,101777.45
2017-10-30T08:09:51.589Z,101780.99
2017-10-30T08:12:18.457Z,101788.70
2017-10-30T08:14:45.350Z,101794.23
2017-10-30T08:17:12.979Z,101801.60
2017-10-30T08:19:39.884Z,101801.16
2017-10-30T08:22:07.506Z,101798.74
2017-10-30T08:24:34.353Z,101802.70
2017-10-30T08:27:01.239Z,101801.08
2017-10-30T08:29:28.150Z,101803.31
2017-10-30T08:31:55.791Z,101806.43
2017-10-30T08:34:22.698Z,101800.55
2017-10-30T08:36:50.315Z,101794.42
2017-10-30T08:39:17.178Z,101796.21
2017-10-30T08:41:44.091Z,101799.90
2017-10-30T08:44:10.982Z,101795.19
2017-10-30T08:46:37.855Z,101795.68
2017-10-30T08:49:04.755Z,101794.31
2017-10-30T08:51:31.623Z,101788.33
2017-10-30T08:53:58.510Z,101795.70
2017-10-30T08:56:26.162Z,101799.83
2017-10-30T08:58:53.084Z,101800.13
2017-10-30T09:01:20.002Z,101800.42
2017-10-30T09:03:46.863Z,101799.98
2017-10-30T09:06:13.730Z,101807.89
2017-10-30T09:08:40.594Z,101813.26
2017-10-30T09:11:08.238Z,101809.26
2017-10-30T09:13:35.141Z,101826.75
2017-10-30T09:16:02.796Z,101819.64
2017-10-30T09:18:29.701Z,101823.20
2017-10-30T09:20:56.608Z,101831.64
2017-10-30T09:23:23.490Z,101827.59
2017-10-30T09:25:50.367Z,101829.79
2017-10-30T09:28:18.010Z,101829.43
2017-10-30T09:30:44.897Z,101829.13
2017-10-30T09:33:12.555Z,101826.33
2017-10-30T09:35:39.444Z,101829.57
2017-10-30T09:38:07.084Z,101832.17
2017-10-30T09:40:33.999Z,101821.06
2017-10-30T09:43:01.637Z,101826.84
2017-10-30T09:45:28.521Z,101822.66
2017-10-30T09:47:55.392Z,101822.87
2017-10-30T09:50:22.263Z,101819.47
2017-10-30T09:52:49.878Z,101831.28
2017-10-30T09:55:16.839Z,101824.09
2017-10-30T09:57:43.699Z,101826.61
2017-10-30T10:00:10.571Z,101831.76
2017-10-30T10:02:37.455Z,101831.23
2017-10-30T10:05:04.828Z,101831.59
2017-10-30T10:07:31.748Z,101830.34
2017-10-30T10:09:58.698Z,101834.34
2017-10-30T10:12:25.585Z,101841.73
2017-10-30T10:14:52.456Z,101847.02
2017-10-30T10:17:19.399Z,101844.59
2017-10-30T10:19:46.311Z,101845.31
2017-10-30T10:22:13.249Z,101849.59
2017-10-30T10:24:40.148Z,101855.27
2017-10-30T10:27:07.056Z,101848.45
2017-10-30T10:29:33.966Z,101854.47
2017-10-30T10:32:00.853Z,101857.49
2017-10-30T10:34:28.473Z,101857.73
2017-10-30T10:36:55.345Z,101863.42
2017-10-30T10:39:22.251Z,101861.87
2017-10-30T10:41:49.914Z,101856.19
2017-10-30T10:44:16.805Z,101854.98
2017-10-30T10:46:44.456Z,101860.70
2017-10-30T10:49:11.342Z,101866.14
2017-10-30T10:51:38.939Z,101875.14
2017-10-30T10:54:05.867Z,101866.73
2017-10-30T10:56:32.748Z,101867.79
2017-10-30T10:58:59.623Z,101870.05
2017-10-30T11:01:26.476Z,101871.94
2017-10-30T11:03:53.334Z,101875.72
2017-10-30T11:06:20.935Z,101874.34
2017-10-30T11:08:47.762Z,101877.68
2017-10-30T11:11:15.345Z,101874.60
2017-10-30T11:13:43.012Z,101862.09
2017-10-30T11:16:09.889Z,101866.73
2017-10-30T11:18:37.529Z,101863.09
2017-10-30T11:21:04.391Z,101863.32
2017-10-30T11:23:31.200Z,101872.27
2017-10-30T11:25:58.080Z,101875.86
2017-10-30T11:28:24.896Z,101871.25
2017-10-30T11:30:52.484Z,101876.41
2017-10-30T11:33:20.033Z,101879.75
2017-10-30T11:35:46.857Z,101877.81
2017-10-30T11:38:13.759Z,101875.17
2017-10-30T11:40:40.639Z,101873.16
2017-10-30T11:43:08.200Z,101866.22
2017-10-30T11:45:35.013Z,101869.19
2017-10-30T11:48:01.876Z,101872.03
2017-10-30T11:50:28.699Z,101873.27
2017-10-30T11:52:55.583Z,101870.58
2017-10-30T11:55:22.416Z,101866.91
2017-10-30T11:57:49.277Z,101869.55
2017-10-30T12:00:16.142Z,101864.67
2017-10-30T12:02:43.009Z,101868.14
2017-10-30T12:05:10.573Z,101869.00
2017-10-30T12:07:37.359Z,101867.04
2017-10-30T12:10:04.193Z,101868.59
2017-10-30T12:12:31.816Z,101874.53
2017-10-30T12:14:58.640Z,101869.96
2017-10-30T12:17:26.210Z,101866.22
2017-10-30T12:19:53.034Z,101872.31
2017-10-30T12:22:19.844Z,101866.94
2017-10-30T12:24:47.458Z,101875.56
2017-10-30T12:27:14.270Z,101874.45
2017-10-30T12:29:41.077Z,101875.17
2017-10-30T12:32:07.922Z,101874.81
2017-10-30T12:34:34.755Z,101879.32
2017-10-30T12:37:01.576Z,101881.68
2017-10-30T12:39:28.604Z,101875.69
2017-10-30T12:41:55.376Z,101876.28
2017-10-30T12:44:22.224Z,101882.56
2017-10-30T12:46:49.070Z,101886.81
2017-10-30T12:49:15.878Z,101886.47
2017-10-30T12:51:42.778Z,101886.81
2017-10-30T12:54:09.725Z,101880.33
2017-10-30T12:56:36.642Z,101874.73
2017-10-30T12:59:03.514Z,101881.23
2017-10-30T13:01:30.331Z,101881.23
2017-10-30T13:03:57.133Z,101888.36
2017-10-30T13:06:23.996Z,101892.75
2017-10-30T13:08:50.890Z,101885.56
2017-10-30T13:11:17.761Z,101885.08
2017-10-30T13:13:44.650Z,101886.80
2017-10-30T13:16:11.558Z,101890.48
2017-10-30T13:18:38.434Z,101884.66
2017-10-30T13:21:05.365Z,101885.64
2017-10-30T13:23:32.232Z,101880.94
2017-10-30T13:25:59.095Z,101882.83
2017-10-30T13:28:26.664Z,101880.77
2017-10-30T13:30:53.511Z,101882.92
2017-10-30T13:33:21.089Z,101879.67
2017-10-30T13:35:48.658Z,101874.84
2017-10-30T13:38:15.498Z,101882.27
2017-10-30T13:40:42.309Z,101878.48
2017-10-30T13:43:09.119Z,101872.98
2017-10-30T13:45:35.952Z,101876.06
2017-10-30T13:48:02.860Z,101873.57
2017-10-30T13:50:30.403Z,101868.38
2017-10-30T13:52:57.252Z,101870.73
2017-10-30T13:55:24.094Z,101870.34
2017-10-30T13:57:50.893Z,101875.52
2017-10-30T14:00:17.734Z,101875.47
2017-10-30T14:02:44.623Z,101873.23
2017-10-30T14:05:11.430Z,101871.90
2017-10-30T14:07:38.262Z,101870.80
2017-10-30T14:10:05.089Z,101876.02
2017-10-30T14:12:31.913Z,101876.77
2017-10-30T14:14:58.756Z,101881.25
2017-10-30T14:17:26.320Z,101881.55
2017-10-30T14:19:53.133Z,101877.02
2017-10-30T14:22:19.971Z,101878.73
2017-10-30T14:24:46.800Z,101881.97
2017-10-30T14:27:13.649Z,101878.20
2017-10-30T14:29:40.491Z,101882.82
2017-10-30T14:32:07.363Z,101877.39
2017-10-30T14:34:34.192Z,101882.91
2017-10-30T14:37:01.080Z,101887.41
2017-10-30T14:39:28.027Z,101884.14
2017-10-30T14:41:54.951Z,101890.14
2017-10-30T14:44:22.608Z,101887.58
2017-10-30T14:46:49.512Z,101880.94
2017-10-30T14:49:16.400Z,101890.08
2017-10-30T14:51:43.306Z,101887.93
2017-10-30T14:54:10.936Z,101891.84
2017-10-30T14:56:37.874Z,101890.66
2017-10-30T14:59:04.773Z,101896.80
2017-10-30T15:01:31.687Z,101898.93
2017-10-30T15:03:59.361Z,101900.86
2017-10-30T15:06:27.040Z,101897.22
2017-10-30T15:08:54.637Z,101899.44
2017-10-30T15:11:21.527Z,101908.66
2017-10-30T15:13:48.417Z,101914.16
2017-10-30T15:16:15.608Z,101914.22
2017-10-30T15:18:42.477Z,101912.05
2017-10-30T15:21:10.090Z,101912.73
2017-10-30T15:23:37.735Z,101913.19
2017-10-30T15:26:05.367Z,101907.14
2017-10-30T15:28:32.217Z,101912.82
2017-10-30T15:30:59.152Z,101918.33
2017-10-30T15:33:26.021Z,101922.25
2017-10-30T15:35:52.955Z,101924.63
2017-10-30T15:38:20.532Z,101927.45
2017-10-30T15:40:48.114Z,101931.80
2017-10-30T15:43:15.763Z,101930.17
2017-10-30T15:45:42.714Z,101929.98
2017-10-30T15:48:09.611Z,101936.34
2017-10-30T15:50:37.204Z,101935.88
2017-10-30T15:53:04.899Z,101930.17
2017-10-30T15:55:31.749Z,101936.70
2017-10-30T15:57:59.603Z,101931.63
2017-10-30T16:00:26.436Z,101937.84
2017-10-30T16:02:53.236Z,101933.81
2017-10-30T16:05:20.101Z,101937.70
2017-10-30T16:07:47.656Z,101934.86
2017-10-30T16:10:14.502Z,101940.02
2017-10-30T16:12:41.331Z,101938.34
2017-10-30T16:15:08.206Z,101940.89
2017-10-30T16:17:35.063Z,101943.09
2017-10-30T16:20:01.882Z,101942.66
2017-10-30T16:22:29.452Z,101949.09
2017-10-30T16:24:56.322Z,101945.85
2017-10-30T16:27:23.890Z,101951.94
2017-10-30T16:29:50.708Z,101952.13
2017-10-30T16:32:17.555Z,101960.64
2017-10-30T16:34:44.438Z,101950.19
2017-10-30T16:37:11.272Z,101958.94
2017-10-30T16:39:38.094Z,101959.87
2017-10-30T16:42:05.014Z,101957.59
2017-10-30T16:44:31.870Z,101959.89
2017-10-30T16:46:58.768Z,101960.62
2017-10-30T16:49:25.682Z,101960.52
2017-10-30T16:51:52.534Z,101958.66
2017-10-30T16:54:19.431Z,101956.17
2017-10-30T16:56:46.285Z,101957.89
2017-10-30T16:59:13.187Z,101960.03
2017-10-30T17:01:40.048Z,101962.47
2017-10-30T17:04:06.934Z,101969.45
2017-10-30T17:06:34.497Z,101971.20
2017-10-30T17:09:01.333Z,101974.39
2017-10-30T17:11:28.143Z,101969.75
2017-10-30T17:13:54.983Z,101970.02
2017-10-30T17:16:22.560Z,101966.00
2017-10-30T17:18:49.417Z,101965.94
2017-10-30T17:21:17.015Z,101973.30
2017-10-30T17:23:44.609Z,101962.41
2017-10-30T17:26:11.464Z,101965.22
2017-10-30T17:28:38.352Z,101966.05
2017-10-30T17:31:05.215Z,101975.22
2017-10-30T17:33:32.031Z,101975.70
2017-10-30T17:35:58.881Z,101972.03
2017-10-30T17:38:26.467Z,101976.49
2017-10-30T17:40:54.127Z,101985.22
2017-10-30T17:43:20.971Z,101982.61
2017-10-30T17:45:47.802Z,101979.48
2017-10-30T17:48:14.634Z,101983.56
2017-10-30T17:50:42.169Z,101991.53
2017-10-30T17:53:08.980Z,101989.19
2017-10-30T17:55:35.811Z,101994.88
2017-10-30T17:58:02.633Z,101991.66
2017-10-30T18:00:29.494Z,101988.69
2017-10-30T18:02:56.398Z,101994.31
2017-10-30T18:05:23.264Z,101991.74
2017-10-30T18:07:50.835Z,101994.78
2017-10-30T18:10:17.688Z,102006.50
2017-10-30T18:12:44.510Z,102011.21
2017-10-30T18:15:11.341Z,102013.61
2017-10-30T18:17:38.908Z,102018.30
2017-10-30T18:20:06.468Z,102011.08
2017-10-30T18:22:33.307Z,102015.27
2017-10-30T18:25:00.140Z,102003.56
2017-10-30T18:27:26.996Z,102016.30
2017-10-30T18:29:53.811Z,102022.64
2017-10-30T18:32:20.657Z,102028.27
2017-10-30T18:34:47.532Z,102023.80
2017-10-30T18:37:14.379Z,102028.50
2017-10-30T18:39:41.260Z,102025.22
2017-10-30T18:42:08.117Z,102022.48
2017-10-30T18:44:34.975Z,102028.16
2017-10-30T18:47:01.821Z,102028.28
2017-10-30T18:49:28.699Z,102032.55
2017-10-30T18:51:55.551Z,102041.16
2017-10-30T18:54:22.390Z,102044.49
2017-10-30T18:56:49.239Z,102037.41
2017-10-30T18:59:16.113Z,102039.47
2017-10-30T19:01:42.965Z,102035.46
2017-10-30T19:04:09.854Z,102039.70
2017-10-30T19:06:36.826Z,102032.41
2017-10-30T19:09:04.479Z,102035.20
2017-10-30T19:11:31.325Z,102034.73
2017-10-30T19:13:58.207Z,102040.25
2017-10-30T19:16:25.065Z,102046.28
2017-10-30T19:18:51.931Z,102051.05
2017-10-30T19:21:18.852Z,102046.56
2017-10-30T19:23:45.713Z,102050.86
2017-10-30T19:26:13.326Z,102044.60
2017-10-30T19:28:40.182Z,102039.24
2017-10-30T19:31:07.005Z,102033.09
2017-10-30T19:33:34.637Z,102031.81
2017-10-30T19:36:01.499Z,102036.31
2017-10-30T19:38:28.325Z,102039.22
2017-10-30T19:40:55.172Z,102041.25
2017-10-30T19:43:23.037Z,102039.75
2017-10-30T19:45:49.970Z,102046.83
2017-10-30T19:48:16.820Z,102042.76
2017-10-30T19:50:43.657Z,102042.64
2017-10-30T19:53:10.491Z,102038.98
2017-10-30T19:55:37.311Z,102037.88
2017-10-30T19:58:04.945Z,102045.79
2017-10-30T20:00:31.881Z,102047.86
2017-10-30T20:02:58.769Z,102051.08
2017-10-30T20:05:31.780Z,102053.47
2017-10-30T20:07:58.682Z,102045.70
2017-10-30T20:10:31.558Z,102048.83
2017-10-30T20:12:58.484Z,102042.57
2017-10-30T20:15:26.063Z,102051.17
2017-10-30T20:17:53.664Z,102049.89
2017-10-30T20:20:20.604Z,102052.08
2017-10-30T20:22:48.186Z,102056.51
2017-10-30T20:25:15.904Z,102050.96
2017-10-30T20:27:42.744Z,102053.75
2017-10-30T20:30:09.599Z,102057.80
2017-10-30T20:32:37.194Z,102063.63
2017-10-30T20:35:04.060Z,102069.25
2017-10-30T20:37:30.951Z,102071.28
2017-10-30T20:39:57.781Z,102070.33
2017-10-30T20:42:24.636Z,102069.45
2017-10-30T20:44:51.467Z,102078.95
2017-10-30T20:47:18.301Z,102079.02
2017-10-30T20:49:45.254Z,102079.30
2017-10-30T20:52:12.533Z,102084.22
2017-10-30T20:54:39.365Z,102089.02
2017-10-30T20:57:06.432Z,102092.50
2017-10-30T20:59:33.303Z,102088.95
2017-10-30T21:02:00.153Z,102091.97
2017-10-30T21:04:27.701Z,102095.36
2017-10-30T21:06:55.263Z,102089.51
2017-10-30T21:09:22.813Z,102092.69
2017-10-30T21:11:49.711Z,102084.70
2017-10-30T21:14:17.311Z,102091.87
2017-10-30T21:16:44.172Z,102081.08
2017-10-30T21:19:11.035Z,102078.00
2017-10-30T21:21:37.906Z,102091.11
2017-10-30T21:24:04.827Z,102093.60
2017-10-30T21:26:31.693Z,102095.14
2017-10-30T21:28:58.547Z,102099.44
2017-10-30T21:31:25.380Z,102093.94
2017-10-30T21:33:52.222Z,102090.83
2017-10-30T21:36:19.041Z,102090.87
2017-10-30T21:38:46.676Z,102087.22
2017-10-30T21:41:13.501Z,102079.41
2017-10-30T21:43:40.348Z,102075.55
2017-10-30T21:46:07.919Z,102077.16
2017-10-30T21:48:35.476Z,102075.95
2017-10-30T21:51:02.319Z,102080.34
2017-10-30T21:53:29.169Z,102078.69
2017-10-30T21:55:56.003Z,102077.59
2017-10-30T21:58:22.832Z,102079.42
2017-10-30T22:00:49.669Z,102077.36
2017-10-30T22:03:16.519Z,102077.27
2017-10-30T22:05:43.356Z,102075.30
2017-10-30T22:08:10.250Z,102077.09
2017-10-30T22:10:37.112Z,102080.14
2017-10-30T22:13:04.010Z,102079.52
2017-10-30T22:15:31.583Z,102072.44
2017-10-30T22:18:00.368Z,102077.98
2017-10-30T22:20:27.207Z,102082.16
2017-10-30T22:22:54.051Z,102087.08
2017-10-30T22:25:20.849Z,102085.34
2017-10-30T22:27:47.688Z,102087.70
2017-10-30T22:30:14.575Z,102090.46
2017-10-30T22:32:41.409Z,102085.06
2017-10-30T22:35:08.236Z,102080.41
2017-10-30T22:37:35.840Z,102081.34
2017-10-30T22:40:02.709Z,102085.34
2017-10-30T22:42:31.589Z,102083.52
2017-10-30T22:44:58.435Z,102078.66
2017-10-30T22:47:25.984Z,102082.55
2017-10-30T22:49:52.829Z,102082.58
2017-10-30T22:52:19.639Z,102077.62
2017-10-30T22:54:47.223Z,102082.33
2017-10-30T22:57:14.765Z,102081.42
2017-10-30T22:59:41.575Z,102079.83
2017-10-30T23:02:08.377Z,102078.67
2017-10-30T23:04:35.191Z,102077.73
2017-10-30T23:07:02.024Z,102081.78
2017-10-30T23:09:28.837Z,102082.02
2017-10-30T23:11:55.678Z,102081.41
2017-10-30T23:14:22.500Z,102080.90
2017-10-30T23:16:49.304Z,102078.58
2017-10-30T23:19:16.160Z,102080.29
2017-10-30T23:21:42.978Z,102083.75
2017-10-30T23:24:09.816Z,102081.54
2017-10-30T23:26:36.613Z,102074.14
2017-10-30T23:29:04.161Z,102071.20
2017-10-30T23:31:30.964Z,102071.80
2017-10-30T23:33:57.751Z,102068.38
2017-10-30T23:36:24.562Z,102064.09
2017-10-30T23:38:51.415Z,102067.63
2017-10-30T23:41:18.218Z,102065.67
2017-10-30T23:43:45.048Z,102065.84
2017-10-30T23:46:12.592Z,102059.84
2017-10-30T23:48:39.422Z,102058.76
2017-10-30T23:51:06.241Z,102057.20
2017-10-30T23:53:33.079Z,102060.78
2017-10-30T23:55:59.883Z,102058.70
2017-10-30T23:58:27.515Z,102052.84
